Tiempo atmosférico en la estación meteorológica de Hinojosa Del Duque, Córdoba (540 m.)



Fecha
DESCASC
Temp. máxima en grados centígrados (hora)
DESCASC
Temp. mínima en grados centígrados (hora)
DESCASC
Temp. media en grados centígrados
DESCASC
Racha de viento máxima en m/sg (hora)
DESCASC
Velocidad máxima media en intervalos de 10 minutos(hora)
DESCASC
Precipitaciones diarias en mm
DESCASC
Precipitaciones de 00:00 a 06:00 en mm
DESCASC
Precipitaciones de 06:00 a 12:00 en mm
DESCASC
Precipitaciones de 12:00 a 18:00 en mm
DESCASC
Precipitaciones de 18:00 a 24:00 en mm
DESCASC
16-06-2019 30.4 (16:30) 11.7 (07:00) 21 10 (18:30) 5.28 (20:40) 0 0 0 0 0
15-06-2019 25.7 (17:20) 9 (05:10) 17.4 7.22 (17:10) 4.17 (03:00) 0 0 0 0 0
14-06-2019 23.1 (17:40) 11.1 (07:20) 17.1 13.06 (16:20) 7.22 (16:20) 0 0 0 0 0
13-06-2019 29.1 (17:00) 10.7 (00:00) 19.9 8.61 (14:10) 5.83 (20:30) 0 0 0 0 0
12-06-2019 28.3 (18:50) 10 (00:00) 19.1 8.89 (18:40) 5 (16:40) 0 0 0 0 0
11-06-2019 25.3 (16:00) 11 (00:00) 18.1 11.11 (16:40) 6.94 (15:40) 0 0 0 0 0
10-06-2019 26.6 (18:20) 10.9 (00:00) 18.8 9.72 (19:50) 5.83 (17:40) 0 0 0 0 0
09-06-2019 26.8 (16:20) 11.6 (00:00) 19.2 10.83 (17:20) 6.94 (18:50) 0 0 0 0 0
08-06-2019 29.6 (17:40) 9.4 (00:00) 19.5 11.94 (18:50) 5 (21:20) 0 0 0 0 0
07-06-2019 22.4 (18:10) 10.2 (00:00) 16.3 11.67 (03:10) 8.06 (03:50) 0 0 0 0 0
06-06-2019 25.1 (16:10) 7.3 (00:00) 16.2 11.67 (18:20) 6.39 (16:50) 0 0 0 0 0
05-06-2019 21.5 (18:10) 9.5 (00:00) 15.5 11.67 (02:30) 7.78 (03:20) 0 0 0 0 0
04-06-2019 29.7 (17:00) 14.4 (00:00) 22.1 11.67 (21:10) 8.61 (21:20) 0 0 0 0 0
03-06-2019 34.8 (17:40) 17.9 (00:00) 26.3 10.28 (18:40) 5.83 (20:20) 0 0 0 0 0
02-06-2019 34.9 (17:50) 13.4 (00:00) 24.2 7.22 (17:10) 3.61 (22:30) 0 0 0 0 0
01-06-2019 33.6 (16:10) 11.9 (00:00) 22.7 7.78 (15:10) 4.44 (17:10) 0 0 0 0 0
31-05-2019 32.5 (16:40) 11.7 (00:00) 22.1 8.89 (15:50) 4.44 (16:20) 0 0 0 0 0
30-05-2019 30.6 (17:30) 14.9 (00:00) 22.8 8.61 (16:30) 5.28 (18:20) 0 0 0 0 0
29-05-2019 28.7 (18:50) 15.2 (00:00) 22 10.56 (10:50) 6.94 (11:20) 0 0 0 0 0
28-05-2019 31.7 (16:30) 14 (00:00) 22.9 8.33 (17:40) 4.44 (00:10) 0 0 0 0 0
27-05-2019 32 (16:00) 12.9 (00:00) 22.4 11.39 (15:30) 6.94 (19:00) 0 0 0 0 0
26-05-2019 28.5 (18:50) 11.3 (00:00) 19.9 10 (17:00) 5.28 (17:00) 0 0 0 0 0
25-05-2019 25.9 (18:10) 13.1 (00:00) 19.5 10.28 (12:30) 5.28 (09:00) 0 0 0 0 0
24-05-2019 28 (17:00) 11.9 (00:00) 19.9 13.06 (20:20) 5 (00:10) 0 0 0 0 0
23-05-2019 30.2 (17:30) 13.4 (00:00) 21.8 9.72 (13:20) 6.94 (20:20) 0 0 0 0 0
22-05-2019 29.5 (16:20) 11.3 (00:00) 20.4 7.5 (12:40) 3.89 (16:50) 0 0 0 0 0
21-05-2019 25.9 (16:40) 10.3 (07:20) 18.1 7.78 (00:50) 5 (01:00) 0 0 0 0 0

Gráficas

Temp. máximas Temp. mínimas Temp. medias Precipitaciones Rachas de viento máximas Velocidades máximas media en intervalos de 10 minutos

Datos horarios

Fecha y hora oficial Temperatura (ºC) Velocidad del viento (km/h) Dirección del viento Racha (km/h) Dirección de racha Precipitación (mm) Presión (hPa) Tendencia (hPa) Humedad (%)
2019-06-19 23:00:00 20.2 8 Norte 25 Noroeste 0 951.7 1 52
2019-06-19 22:00:00 21.7 18 Noroeste 28 Norte 0 951.1 0.6 48
2019-06-19 21:00:00 24 22 Norte 31 Noroeste 0 950.9 -0.2 43
2019-06-19 20:00:00 25.8 22 Norte 32 Norte 0 950.7 -0.7 38
2019-06-19 19:00:00 27.1 16 Noroeste 28 Oeste 0 950.5 -1.7 36
2019-06-19 18:00:00 27.2 10 Noroeste 33 Noroeste 0 951.1 -1.4 36
2019-06-19 17:00:00 27.3 15 Noroeste 37 Sudoeste 0 951.4 -1.8 37
2019-06-19 16:00:00 26.6 15 Oeste 32 Oeste 0 952.2 -1.3 39
2019-06-19 15:00:00 25.6 8 Noroeste 27 Oeste 0 952.5 -1 42
2019-06-19 14:00:00 24.6 10 Oeste 29 Oeste 0 953.2 -0.4 44
2019-06-19 13:00:00 23.5 9 Oeste 26 Oeste 0 953.5 0 47
2019-06-19 12:00:00 21.7 9 Oeste 18 Oeste 0 953.5 0.1 51
2019-06-19 11:00:00 19.6 8 Oeste 18 Oeste 0 953.6 0.5 58
2019-06-19 10:00:00 19.4 7 Oeste 17 Nordeste 0 953.5 0.8 63
2019-06-19 09:00:00 18.3 8 Oeste 14 Noroeste 0 953.4 1 69
2019-06-19 08:00:00 16 9 Oeste 13 Oeste 0 953.1 0.7 76
2019-06-19 07:00:00 15.8 10 Oeste 13 Oeste 0 952.7 0.5 79
2019-06-19 06:00:00 14.9 8 Oeste 12 Sudoeste 0 952.4 0 80
2019-06-19 05:00:00 15.6 8 Oeste 15 Sudoeste 0 952.4 0.1 77
2019-06-19 04:00:00 16 9 Oeste 13 Oeste 0 952.2 -0.1 76
2019-06-19 03:00:00 16.8 10 Oeste 14 Sudoeste 0 952.4 -0.1 71
2019-06-19 02:00:00 17.7 11 Sudoeste 19 Oeste 0 952.3 0.1 67
2019-06-19 01:00:00 18.8 13 Sudoeste 21 Oeste 0 952.3 1 62
2019-06-19 00:00:00 19.8 14 Sudoeste 24 Oeste 0 952.5 1.4 57
2019-06-18 23:00:00 21.1 17 Oeste 29 Oeste 0 952.2 1.4 52
2019-06-18 22:00:00 22.8 16 Sudoeste 30 Sudoeste 0 951.3 0.9 47
2019-06-18 21:00:00 25.3 17 Sudoeste 32 Sudoeste 0 951.1 0.3 42
2019-06-18 20:00:00 26.6 17 Sudoeste 32 Sudoeste 0 950.8 -0.2 38
2019-06-18 19:00:00 27.6 17 Sudoeste 32 Oeste 0 950.4 -0.7 34
2019-06-18 18:00:00 27.7 19 Sudoeste 40 Sudoeste 0 950.8 -0.5 33
2019-06-18 17:00:00 28.3 19 Sudoeste 41 Sudeste 0 951 -0.8 30
2019-06-18 16:00:00 28.1 18 Sudoeste 39 Oeste 0 951.1 -0.9 26
2019-06-18 15:00:00 27.8 16 Sudoeste 34 Sudoeste 0 951.3 -0.9 25
2019-06-18 14:00:00 27 15 Sudoeste 30 Sudoeste 0 951.8 -0.5 27
2019-06-18 13:00:00 25.7 14 Sudoeste 36 Sur 0 952 -0.2 33
2019-06-18 12:00:00 24.1 16 Sur 32 Sur 0 952.2 0.2 37
2019-06-18 11:00:00 23.2 16 Sur 29 Sudoeste 0 952.3 0.7 39
2019-06-18 10:00:00 21.2 20 Sudoeste 27 Sudoeste 0 952.2 1 41
2019-06-18 09:00:00 20.2 13 Sudoeste 22 Sudoeste 0 952 0.8 42
2019-06-18 08:00:00 18.4 5 Sur 13 Sur 0 951.6 0.6 46
2019-06-18 07:00:00 15.2 7 Sur 12 Sur 0 951.2 -0.1 46
2019-06-18 06:00:00 16.1 7 Sudeste 10 Sudeste 0 951.2 -0.3 43
2019-06-18 05:00:00 17.2 7 Sudoeste 9 Sudoeste 0 951 -0.5 39
2019-06-18 04:00:00 17.6 8 Sur 11 Sur 0 951.3 -0.3 37
2019-06-18 03:00:00 18.7 7 Sur 12 Sur 0 951.5 0 35
2019-06-18 02:00:00 19.1 6 Sur 12 Sur 0 951.5 0.3 34
2019-06-18 01:00:00 20.1 9 Sur 12 Sur 0 951.6 0.7 31
2019-06-18 00:00:00 22.9 10 Sudoeste 18 Sudoeste 0 951.5 0.8 31
2019-06-17 23:00:00 22.2 4 Sur 14 Sudoeste 0 951.2 0.8 30
2019-06-17 22:00:00 24.4 13 Sudoeste 26 Sudoeste 0 950.9 0.6 26
2019-06-17 21:00:00 27.1 18 Sudoeste 28 Sudoeste 0 950.7 0.2 25
2019-06-17 20:00:00 29.2 15 Sudoeste 28 Sudoeste 0 950.4 -0.7 25
2019-06-17 19:00:00 29.7 13 Sur 28 Sudoeste 0 950.3 -1.1 24
2019-06-17 18:00:00 30 15 Sudoeste 28 Sur 0 950.5 -1.5 24
2019-06-17 17:00:00 30 16 Sudoeste 32 Sudoeste 0 951.1 -1.7 26
2019-06-17 16:00:00 30.2 13 Sur 29 Sur 0 951.4 -1.9 27
2019-06-17 15:00:00 29.7 13 Sudoeste 28 Sur 0 952 -2 27
2019-06-17 14:00:00 28.4 11 Sur 26 Sur 0 952.8 -1.3 32
2019-06-17 13:00:00 27.4 7 Sur 21 Sur 0 953.3 -1.1 34
2019-06-17 12:00:00 25.4 4 Este 14 Sudeste 0 954 -0.2 37
2019-06-17 11:00:00 24.3 4 Sudoeste 12 Oeste 0 954.1 -0.4 38
2019-06-17 10:00:00 22.1 5 Este 11 Sudeste 0 954.4 0.1 39
2019-06-17 09:00:00 18.4 7 Sudeste 10 Sur 0 954.2 0.1 48
2019-06-17 08:00:00 15.7 4 Sudeste 8 Sur 0 954.5 0.5 54
2019-06-17 07:00:00 11.5 8 Sur 9 Sur 0 954.3 0.3 58
2019-06-17 06:00:00 12.5 7 Sudeste 9 Sudeste 0 954.1 0 55
2019-06-17 05:00:00 14.7 5 Este 19 Oeste 0 954 -0.2 49
2019-06-17 04:00:00 16.1 13 Oeste 20 Oeste 0 954 -0.4 47
2019-06-17 03:00:00 17.6 14 Sudoeste 21 Sudoeste 0 954.1 -0.1 44
2019-06-17 02:00:00 18.1 13 Sudoeste 19 Sudoeste 0 954.2 0.5 42
2019-06-17 01:00:00 18.8 12 Sudoeste 18 Sudoeste 0 954.4 1.2 42
2019-06-17 00:00:00 19.8 8 Sudoeste 15 Sudoeste 0 954.2 1.4 42
2019-06-16 23:00:00 21.1 9 Sudoeste 14 Sudoeste 0 953.7 1 38
2019-06-16 22:00:00 23.2 9 Sudoeste 23 Sudoeste 0 953.2 0.9 29
2019-06-16 21:00:00 25.9 18 Sudoeste 31 Sur 0 952.8 0.4 26
2019-06-16 20:00:00 27.9 18 Sudoeste 31 Sur 0 952.7 0.1 26
2019-06-16 19:00:00 29.1 16 Sudoeste 36 Sur 0 952.3 -0.8 25
2019-06-16 18:00:00 28.7 13 Sudoeste 26 Oeste 0 952.4 -0.8 25
2019-06-16 17:00:00 28.5 14 Sudoeste 32 Sur 0 952.6 -1 24
2019-06-16 16:00:00 28.4 13 Sudoeste 24 Sudeste 0 953.1 -0.7 24
2019-06-16 15:00:00 29.6 6 Sudoeste 23 Sudoeste 0 953.2 -0.9 26
2019-06-16 14:00:00 27.3 10 Sudeste 21 Sur 0 953.6 -0.7 29
2019-06-16 13:00:00 28.1 8 Oeste 16 Oeste 0 953.8 -0.4 30
2019-06-16 12:00:00 26.8 4 Sudoeste 11 Sudeste 0 954.1 0.3 32
2019-06-16 11:00:00 23.2 3 Este 10 Sudeste 0 954.3 0.7 34
2019-06-16 10:00:00 20.4 3 Nordeste 7 Norte 0 954.2 0.9 38
2019-06-16 09:00:00 17.5 0 Calma 4 Noroeste 0 953.8 0.8 40
2019-06-16 08:00:00 13.8 3 Oeste 6 Noroeste 0 953.6 0.4 44
2019-06-16 07:00:00 11.8 5 Noroeste 6 Noroeste 0 953.3 -0.1 44
2019-06-16 06:00:00 12.3 3 Oeste 4 Oeste 0 953 -0.7 44
2019-06-16 05:00:00 12.5 0 Calma 4 Oeste 0 953.2 -1 43
2019-06-16 04:00:00 13.2 3 Sudoeste 6 Sur 0 953.4 -1.4 42
2019-06-16 03:00:00 13.5 6 Sur 7 Sur 0 953.7 -1.1 41
2019-06-16 02:00:00 15.1 5 Sur 8 Sur 0 954.2 -0.5 40
2019-06-16 01:00:00 15 7 Sur 8 Nordeste 0 954.8 0.6 39
2019-06-16 00:00:00 18.2 7 Norte 10 Norte 0 954.8 0.6 36
2019-06-15 23:00:00 18.6 9 Norte 12 Norte 0 954.7 0.9 35
2019-06-15 22:00:00 20 11 Norte 18 Norte 0 954.2 0.5 34
2019-06-15 21:00:00 23.7 13 Norte 18 Norte 0 954.2 0.1 32
2019-06-15 20:00:00 24.6 12 Norte 19 Norte 0 953.8 -0.6 31
2019-06-15 19:00:00 25.6 6 Noroeste 24 Oeste 0 953.7 -1.2 31
2019-06-15 18:00:00 24.9 5 Norte 26 Noroeste 0 954.1 -1.5 32
2019-06-15 17:00:00 24.8 12 Noroeste 25 Noroeste 0 954.4 -1.6 33
2019-06-15 16:00:00 23 4 Este 22 Noroeste 0 954.9 -1.3 35
2019-06-15 15:00:00 22.7 6 Oeste 22 Oeste 0 955.6 -0.8 37
2019-06-15 14:00:00 22 7 Oeste 20 Norte 0 956 -0.5 39
2019-06-15 13:00:00 20.4 3 Norte 17 Noroeste 0 956.2 -0.3 42
2019-06-15 12:00:00 19 5 Nordeste 22 Noroeste 0 956.4 0.2 47
2019-06-15 11:00:00 17.5 4 Noroeste 13 Norte 0 956.5 0.7 51
2019-06-15 10:00:00 16.2 5 Noroeste 9 Noroeste 0 956.5 1 57
2019-06-15 09:00:00 15.3 3 Noroeste 6 Noroeste 0 956.2 1 60
2019-06-15 08:00:00 12.4 4 Oeste 7 Oeste 0 955.8 0.7 67
2019-06-15 07:00:00 9.4 4 Oeste 6 Oeste 0 955.5 0.3 73
2019-06-15 06:00:00 9.4 5 Oeste 9 Oeste 0 955.2 0.2 70
2019-06-15 05:00:00 9.1 8 Oeste 10 Noroeste 0 955.1 -0.1 67
2019-06-15 04:00:00 10.7 7 Noroeste 19 Oeste 0 955.2 0.3 62
2019-06-15 03:00:00 12.4 15 Oeste 18 Oeste 0 955 0.3 58
2019-06-15 02:00:00 12.8 12 Oeste 17 Noroeste 0 955.2 1.1 55
2019-06-15 01:00:00 13.8 14 Noroeste 19 Noroeste 0 954.9 1.4 52
2019-06-15 00:00:00 14.1 12 Noroeste 16 Noroeste 0 954.7 2.1 48
2019-06-14 23:00:00 15.3 13 Noroeste 25 Noroeste 0 954.1 2 45
2019-06-14 22:00:00 16.9 18 Noroeste 29 Oeste 0 953.5 2 43
2019-06-14 21:00:00 19.3 22 Noroeste 36 Oeste 0 952.6 1.5 40
2019-06-14 20:00:00 20.7 21 Oeste 38 Oeste 0 952.1 1 37
2019-06-14 19:00:00 22.2 20 Oeste 35 Oeste 0 951.5 0.4 37
2019-06-14 18:00:00 22.7 21 Oeste 39 Oeste 0 951.1 -0.2 37
2019-06-14 17:00:00 22.6 22 Oeste 47 Oeste 0 951.1 -0.3 37
2019-06-14 16:00:00 22.8 22 Oeste 41 Oeste 0 951.1 -0.5 39
2019-06-14 15:00:00 22.4 15 Oeste 36 Oeste 0 951.3 0 40
2019-06-14 14:00:00 21.4 14 Sudoeste 41 Sudoeste 0 951.4 0.4 43
2019-06-14 13:00:00 19.1 16 Sudoeste 28 Sudoeste 0 951.6 0.7 48
2019-06-14 12:00:00 18.6 16 Sudoeste 38 Noroeste 0 951.3 1.1 51
2019-06-14 11:00:00 16.8 14 Sudoeste 37 Sudoeste 0 951 1.4 54
2019-06-14 10:00:00 16.2 13 Sudoeste 21 Sudoeste 0 950.9 1.6 52
2019-06-14 09:00:00 14.6 10 Sudoeste 15 Sudoeste 0 950.2 1.3 57
2019-06-14 08:00:00 12.8 7 Sudoeste 9 Sudoeste 0 949.6 1.1 61
2019-06-14 07:00:00 11.6 8 Oeste 16 Oeste 0 949.3 0.5 60
2019-06-14 06:00:00 12.6 8 Oeste 14 Oeste 0 948.9 0.4 57
2019-06-14 05:00:00 12.2 10 Oeste 14 Oeste 0 948.5 0.3 55
2019-06-14 04:00:00 13.3 10 Oeste 21 Oeste 0 948.8 0.8 52
2019-06-14 03:00:00 15.1 15 Oeste 24 Oeste 0 948.5 0.8 42
2019-06-14 02:00:00 15.6 10 Oeste 14 Oeste 0 948.2 1.1 38
2019-06-14 01:00:00 17.5 11 Oeste 19 Oeste 0 948 1.5 37
2019-06-14 00:00:00 19.3 14 Oeste 21 Oeste 0 947.7 2.2 35
2019-06-13 23:00:00 20 12 Noroeste 19 Noroeste 0 947.1 2.3 35
2019-06-13 22:00:00 21.8 14 Noroeste 24 Oeste 0 946.5 2.2 35
2019-06-13 21:00:00 23.9 15 Noroeste 27 Noroeste 0 945.5 0.9 34
2019-06-13 20:00:00 24.9 18 Noroeste 28 Noroeste 0 944.8 -0.2 34
2019-06-13 19:00:00 27 15 Sudoeste 30 Sudoeste 0 944.3 -1.2 34
2019-06-13 18:00:00 28 13 Sudoeste 25 Oeste 0 944.6 -1.3 34
2019-06-13 17:00:00 28.8 3 Sudoeste 26 Sur 0 945 -1.4 34
2019-06-13 16:00:00 26.3 10 Sudoeste 26 Sudoeste 0 945.5 -1.3 35
2019-06-13 15:00:00 25.8 10 Sudoeste 31 Sudoeste 0 945.9 -1.2 36
2019-06-13 14:00:00 24.4 12 Sudoeste 28 Sur 0 946.4 -1.1 38
2019-06-13 13:00:00 24.7 10 Sur 26 Sur 0 946.8 -0.8 38
2019-06-13 12:00:00 23.3 3 Este 17 Este 0 947.1 -0.3 35
2019-06-13 11:00:00 21 7 Sudeste 13 Sudeste 0 947.5 0.4 39
2019-06-13 10:00:00 19.6 3 Norte 7 Oeste 0 947.6 0.8 43
2019-06-13 09:00:00 17.3 0 Calma 5 Sudoeste 0 947.4 0.9 46
2019-06-13 08:00:00 14.1 0 Calma 7 Sudoeste 0 947.1 0.5 51
2019-06-13 07:00:00 11.1 5 Sudoeste 10 Sudoeste 0 946.8 0.3 53
2019-06-13 06:00:00 11.8 6 Sudoeste 11 Sudoeste 0 946.5 0.2 49
2019-06-13 05:00:00 12.2 6 Sudoeste 12 Oeste 0 946.6 0 44
2019-06-13 04:00:00 14 10 Oeste 20 Oeste 0 946.5 -0.1 39
2019-06-13 03:00:00 15.5 13 Oeste 19 Oeste 0 946.3 -0.4 35
2019-06-13 02:00:00 16.4 14 Oeste 18 Oeste 0 946.6 0 32
2019-06-13 01:00:00 16.8 6 Sur 9 Sur 0 946.6 0.7 31
2019-06-13 00:00:00 18.3 3 Noroeste 4 Norte 0 946.7 1.3 29
2019-06-12 23:00:00 19.6 2 Oeste 14 Noroeste 0 946.6 1.5 28
2019-06-12 22:00:00 21.8 13 Norte 21 Norte 0 945.9 0.7 26
2019-06-12 21:00:00 25.3 12 Noroeste 21 Oeste 0 945.4 -0.4 28
2019-06-12 20:00:00 26.1 14 Oeste 26 Oeste 0 945.1 -1.1 27
2019-06-12 19:00:00 27.6 12 Oeste 32 Oeste 0 945.2 -1.7 26
2019-06-12 18:00:00 27.5 9 Oeste 29 Oeste 0 945.8 -1.7 26
2019-06-12 17:00:00 27.6 6 Sudoeste 29 Oeste 0 946.2 -2.1 27
2019-06-12 16:00:00 26.6 12 Sudoeste 29 Oeste 0 946.9 -1.9 27
2019-06-12 15:00:00 25.9 10 Oeste 23 Oeste 0 947.5 -1.6 28
2019-06-12 14:00:00 25.1 11 Noroeste 23 Oeste 0 948.3 -1 29
2019-06-12 13:00:00 25.2 3 Norte 22 Oeste 0 948.8 -0.4 30
2019-06-12 12:00:00 23.1 10 Oeste 17 Oeste 0 949.1 -0.1 31
2019-06-12 11:00:00 21.8 4 Noroeste 11 Sudeste 0 949.3 0.5 32
2019-06-12 10:00:00 19.6 3 Noroeste 8 Sudeste 0 949.2 0.7 33
2019-06-12 09:00:00 17 3 Noroeste 4 Noroeste 0 949.2 0.7 36
2019-06-12 08:00:00 14.1 0 Calma 4 Nordeste 0 948.8 0.6 41
2019-06-12 07:00:00 10.2 0 Calma 10 Nordeste 0 948.5 0 41
2019-06-12 06:00:00 12.8 6 Nordeste 13 Nordeste 0 948.5 0 39
2019-06-12 05:00:00 13.7 8 Nordeste 15 Nordeste 0 948.2 -0.7 39
2019-06-12 04:00:00 14.4 7 Nordeste 12 Nordeste 0 948.5 -0.4 39
2019-06-12 03:00:00 14.1 5 Norte 12 Nordeste 0 948.5 -0.5 38
2019-06-12 02:00:00 15.9 8 Nordeste 14 Nordeste 0 948.9 0.3 37
2019-06-12 01:00:00 16.4 6 Nordeste 15 Nordeste 0 948.9 1.1 39
2019-06-12 00:00:00 17.4 8 Nordeste 16 Este 0 949 1.6 38
2019-06-11 23:00:00 19.1 9 Este 23 Nordeste 0 948.6 1.7 36
2019-06-11 22:00:00 20.5 11 Este 31 Nordeste 0 947.8 1 36
2019-06-11 21:00:00 22.4 9 Nordeste 26 Nordeste 0 947.4 0.4 34
2019-06-11 20:00:00 23.5 17 Noroeste 29 Noroeste 0 946.9 -0.5 32
2019-06-11 19:00:00 24.7 14 Noroeste 30 Noroeste 0 946.8 -0.5 31
2019-06-11 18:00:00 24.7 17 Noroeste 35 Norte 0 947 -0.7 29
2019-06-11 17:00:00 24.4 21 Oeste 40 Noroeste 0 947.4 -0.7 31
2019-06-11 16:00:00 24.6 18 Oeste 39 Oeste 0 947.3 -0.9 33
2019-06-11 15:00:00 23.5 20 Noroeste 37 Noroeste 0 947.7 -0.7 37
2019-06-11 14:00:00 22.3 22 Noroeste 37 Noroeste 0 948.1 -0.4 40
2019-06-11 13:00:00 21.3 18 Noroeste 33 Oeste 0 948.2 -0.3 43
2019-06-11 12:00:00 19.9 19 Noroeste 30 Oeste 0 948.4 -0.1 46
2019-06-11 11:00:00 18.3 9 Noroeste 25 Oeste 0 948.5 0.1 49
2019-06-11 10:00:00 16.4 15 Noroeste 24 Noroeste 0 948.5 0.1 53
2019-06-11 09:00:00 14.2 15 Oeste 20 Oeste 0 948.5 0.1 56
2019-06-11 08:00:00 12.7 12 Oeste 23 Oeste 0 948.4 -0.4 58
2019-06-11 07:00:00 11.1 15 Oeste 24 Oeste 0 948.4 -0.8 59
2019-06-11 06:00:00 12 12 Oeste 25 Oeste 0 948.4 -1.2 54
2019-06-11 05:00:00 12.9 14 Oeste 23 Oeste 0 948.8 -1.4 50
2019-06-11 04:00:00 14.1 15 Oeste 23 Oeste 0 949.2 -1.4 47
2019-06-11 03:00:00 15.1 17 Oeste 24 Oeste 0 949.6 -1 45
2019-06-11 02:00:00 16.2 17 Oeste 26 Noroeste 0 950.2 -0.2 42
2019-06-11 01:00:00 17.8 15 Oeste 32 Noroeste 0 950.6 0.6 38
2019-06-11 00:00:00 18.9 19 Oeste 24 Oeste 0 950.6 0.7 36
2019-06-10 23:00:00 19.6 13 Oeste 19 Oeste 0 950.4 0.4 33
2019-06-10 22:00:00 21.1 14 Oeste 21 Oeste 0 950 -0.3 31
2019-06-10 21:00:00 23.5 17 Oeste 30 Noroeste 0 949.9 -0.9 30
2019-06-10 20:00:00 25.1 18 Noroeste 35 Noroeste 0 950 -1.3 30
2019-06-10 19:00:00 25.8 15 Noroeste 30 Noroeste 0 950.3 -1.3 30
2019-06-10 18:00:00 25.7 13 Noroeste 32 Oeste 0 950.8 -1.5 30
2019-06-10 17:00:00 25.2 13 Noroeste 28 Oeste 0 951.3 -1.6 31
2019-06-10 16:00:00 24.9 10 Noroeste 31 Oeste 0 951.6 -1.9 32
2019-06-10 15:00:00 24.1 10 Noroeste 28 Oeste 0 952.3 -1.3 34
2019-06-10 14:00:00 23 12 Noroeste 29 Oeste 0 952.9 -0.8 37
2019-06-10 13:00:00 22.1 12 Noroeste 28 Noroeste 0 953.5 -0.4 39
2019-06-10 12:00:00 20.9 13 Noroeste 24 Oeste 0 953.6 0.1 42
2019-06-10 11:00:00 19.3 12 Noroeste 21 Oeste 0 953.7 0.1 50
2019-06-10 10:00:00 17.1 12 Oeste 17 Oeste 0 953.9 0.6 57
2019-06-10 09:00:00 15.2 10 Oeste 18 Oeste 0 953.5 0.4 63
2019-06-10 08:00:00 12.9 14 Oeste 19 Oeste 0 953.6 0 69
2019-06-10 07:00:00 11.1 10 Oeste 17 Oeste 0 953.3 -0.7 71
2019-06-10 06:00:00 11.4 4 Oeste 17 Oeste 0 953.1 -1.1 65
2019-06-10 05:00:00 12.9 12 Oeste 19 Oeste 0 953.6 -0.7 62
2019-06-10 04:00:00 13.7 16 Oeste 21 Oeste 0 954 -0.2 58
2019-06-10 03:00:00 14.9 16 Oeste 25 Noroeste 0 954.2 0.1 53
2019-06-10 02:00:00 15.8 18 Oeste 26 Oeste 0 954.3 0.6 50
2019-06-10 01:00:00 17.1 20 Noroeste 28 Noroeste 0 954.2 1.5 45
2019-06-10 00:00:00 17.9 18 Noroeste 29 Noroeste 0 954.1 1.6 42
2019-06-09 23:00:00 19.4 20 Noroeste 28 Noroeste 0 953.7 1.4 37
2019-06-09 22:00:00 20.6 18 Noroeste 28 Noroeste 0 952.7 0.6 33
2019-06-09 21:00:00 22.7 24 Noroeste 35 Noroeste 0 952.5 0.3 30
2019-06-09 20:00:00 24.6 23 Noroeste 36 Oeste 0 952.3 -0.1 28
2019-06-09 19:00:00 25.7 21 Oeste 33 Oeste 0 952.1 -0.7 27
2019-06-09 18:00:00 26.2 19 Oeste 39 Oeste 0 952.2 -1 26
2019-06-09 17:00:00 26.4 18 Oeste 33 Oeste 0 952.4 -1.3 25
2019-06-09 16:00:00 26.2 22 Oeste 35 Oeste 0 952.8 -1.3 26
2019-06-09 15:00:00 25.4 17 Oeste 35 Oeste 0 953.2 -1.1 27
2019-06-09 14:00:00 24.4 19 Oeste 32 Noroeste 0 953.7 -0.7 32
2019-06-09 13:00:00 23.5 13 Sudoeste 27 Sudoeste 0 954.1 -0.5 36
2019-06-09 12:00:00 22.5 13 Oeste 26 Sudoeste 0 954.3 -0.1 38
2019-06-09 11:00:00 21 12 Oeste 22 Sudoeste 0 954.4 0.2 39
2019-06-09 10:00:00 20.1 8 Oeste 14 Sudoeste 0 954.6 0.7 42
2019-06-09 09:00:00 18.1 6 Sudoeste 9 Oeste 0 954.4 0.4 48
2019-06-09 08:00:00 14 4 Sudoeste 10 Sudoeste 0 954.2 0.1 55
2019-06-09 07:00:00 11.8 6 Sudoeste 9 Sudoeste 0 953.9 -0.3 58
2019-06-09 06:00:00 12.7 3 Oeste 12 Oeste 0 954 0.1 56
2019-06-09 05:00:00 13.8 8 Oeste 18 Oeste 0 954.1 0 51
2019-06-09 04:00:00 15.3 13 Oeste 23 Oeste 0 954.2 0.3 46
2019-06-09 03:00:00 16.5 17 Oeste 25 Oeste 0 953.9 0.3 37
2019-06-09 02:00:00 18.1 14 Oeste 20 Sudoeste 0 954.1 0.6 32
2019-06-09 01:00:00 18.2 9 Sudoeste 13 Oeste 0 953.9 1.5 32
2019-06-09 00:00:00 20 7 Oeste 16 Oeste 0 953.6 1.6 31
2019-06-08 23:00:00 20.9 11 Oeste 19 Oeste 0 953.5 1.7 31
2019-06-08 22:00:00 23.7 9 Sudoeste 28 Sur 0 952.4 0.8 32
2019-06-08 21:00:00 26.4 17 Sudoeste 30 Sudoeste 0 952 0.2 26
2019-06-08 20:00:00 26.7 17 Sudoeste 27 Oeste 0 951.8 -0.5 23
2019-06-08 19:00:00 28.4 16 Sudoeste 43 Sudoeste 0 951.6 -1 20
2019-06-08 18:00:00 29.2 6 Sudoeste 21 Oeste 0 951.8 -1.5 20
2019-06-08 17:00:00 29 9 Sudoeste 26 Sudoeste 0 952.3 -1.5 20
2019-06-08 16:00:00 28.4 8 Oeste 29 Sudoeste 0 952.6 -1.6 21
2019-06-08 15:00:00 27.6 7 Sudoeste 31 Sudoeste 0 953.3 -1.2 22
2019-06-08 14:00:00 26.7 6 Sur 17 Norte 0 953.8 -0.7 23
2019-06-08 13:00:00 24.9 6 Sudoeste 15 Este 0 954.2 -0.4 26
2019-06-08 12:00:00 23.4 7 Oeste 14 Sudoeste 0 954.5 -0.1 27
2019-06-08 11:00:00 21.8 2 Nordeste 10 Noroeste 0 954.5 0 30
2019-06-08 10:00:00 19 4 Norte 11 Noroeste 0 954.6 0.4 35
2019-06-08 09:00:00 15.8 9 Noroeste 13 Noroeste 0 954.6 0.4 40
2019-06-08 08:00:00 12 6 Noroeste 8 Noroeste 0 954.5 0 45
2019-06-08 07:00:00 9.7 5 Oeste 6 Oeste 0 954.2 -0.5 46
2019-06-08 06:00:00 10.2 6 Noroeste 6 Noroeste 0 954.2 -0.9 45
2019-06-08 05:00:00 10.6 5 Noroeste 6 Noroeste 0 954.5 -0.7 43
2019-06-08 04:00:00 10.8 5 Oeste 6 Oeste 0 954.7 -0.7 43
2019-06-08 03:00:00 12.3 3 Noroeste 7 Noroeste 0 955.1 -0.3 41
2019-06-08 02:00:00 12.6 6 Noroeste 9 Noroeste 0 955.2 0 40
2019-06-08 01:00:00 12.3 8 Noroeste 11 Noroeste 0 955.4 0.6 40
2019-06-08 00:00:00 12.5 9 Noroeste 11 Noroeste 0 955.4 0.9 37
2019-06-07 23:00:00 14 7 Noroeste 11 Noroeste 0 955.2 0.9 34
2019-06-07 22:00:00 16.3 9 Noroeste 19 Noroeste 0 954.8 0.9 31
2019-06-07 21:00:00 20.1 13 Noroeste 22 Norte 0 954.5 0.7 27
2019-06-07 20:00:00 21.1 14 Noroeste 23 Noroeste 0 954.3 0.4 25
2019-06-07 19:00:00 21.9 7 Norte 27 Norte 0 953.9 -0.2 25
2019-06-07 18:00:00 22 10 Norte 30 Noroeste 0 953.8 -0.3 26
2019-06-07 17:00:00 21.6 10 Noroeste 26 Noroeste 0 953.9 -0.4 28
2019-06-07 16:00:00 21.7 12 Oeste 24 Oeste 0 954.1 -0.1 29
2019-06-07 15:00:00 19.9 14 Noroeste 27 Noroeste 0 954.1 0.1 32
2019-06-07 14:00:00 18.7 12 Noroeste 23 Noroeste 0 954.3 0.4 35
2019-06-07 13:00:00 17.4 8 Norte 26 Norte 0 954.2 0.6 39
2019-06-07 12:00:00 15.9 13 Noroeste 24 Noroeste 0 954 1.1 44
2019-06-07 11:00:00 14.6 12 Noroeste 23 Norte 0 953.9 1.9 50
2019-06-07 10:00:00 13 11 Noroeste 25 Noroeste 0 953.6 2.4 54
2019-06-07 09:00:00 11.8 19 Noroeste 26 Oeste 0 952.9 2.2 60
2019-06-07 08:00:00 11.2 17 Noroeste 24 Oeste 0 952 1.3 69
2019-06-07 07:00:00 11 17 Noroeste 24 Noroeste 0 951.2 1.4 65
2019-06-07 06:00:00 11.2 15 Oeste 35 Noroeste 0 950.7 1.6 67
2019-06-07 05:00:00 10.4 28 Noroeste 38 Noroeste 0 950.7 1.9 79
2019-06-07 04:00:00 12.3 26 Noroeste 42 Oeste 0 949.8 1 82
2019-06-07 03:00:00 16.1 25 Oeste 38 Oeste 0 949.1 0.6 63
2019-06-07 02:00:00 16.5 17 Oeste 31 Sudoeste 0 948.8 1.2 58
2019-06-07 01:00:00 16.6 18 Sudoeste 31 Oeste 0 948.8 1.8 55
2019-06-07 00:00:00 17 11 Sudoeste 27 Oeste 0 948.5 2 49
2019-06-06 23:00:00 18.5 16 Oeste 32 Oeste 0 947.6 1.3 43
2019-06-06 22:00:00 19.7 20 Oeste 33 Sudoeste 0 947 0.6 37
2019-06-06 21:00:00 22.3 22 Oeste 33 Sudoeste 0 946.5 -0.3 31
2019-06-06 20:00:00 23.4 20 Sudoeste 37 Sudoeste 0 946.3 -0.8 29
2019-06-06 19:00:00 24.5 20 Sudoeste 42 Sudoeste 0 946.4 -1.3 29
2019-06-06 18:00:00 24.1 22 Sudoeste 40 Oeste 0 946.8 -1.7 28
2019-06-06 17:00:00 24.5 21 Sudoeste 37 Sudoeste 0 947.1 -2 29
2019-06-06 16:00:00 24.7 20 Sudoeste 36 Sudoeste 0 947.7 -1.8 30
2019-06-06 15:00:00 23 15 Sudoeste 41 Sudoeste 0 948.5 -1.2 33
2019-06-06 14:00:00 22.3 14 Sudoeste 32 Sudoeste 0 949.1 -1.3 33
2019-06-06 13:00:00 21.3 13 Sudoeste 31 Oeste 0 949.5 -1.1 37
2019-06-06 12:00:00 19.9 11 Sudoeste 25 Sudoeste 0 949.7 -1.4 40
2019-06-06 11:00:00 18.1 5 Sudoeste 13 Sudeste 0 950.4 -0.9 44
2019-06-06 10:00:00 15.8 3 Sudoeste 8 Oeste 0 950.6 -0.6 49
2019-06-06 09:00:00 13.1 6 Oeste 14 Oeste 0 951.1 -0.2 58
2019-06-06 08:00:00 10 6 Oeste 8 Sudoeste 0 951.3 0.1 62
2019-06-06 07:00:00 8.4 6 Sudoeste 6 Sudoeste 0 951.2 -0.1 64
2019-06-06 06:00:00 8.3 0 Calma 9 Sudoeste 0 951.3 -0.1 60
2019-06-06 05:00:00 9.5 6 Oeste 13 Oeste 0 951.2 -0.2 56
2019-06-06 04:00:00 10.5 10 Oeste 15 Oeste 0 951.3 -0.1 54
2019-06-06 03:00:00 11.8 10 Noroeste 19 Noroeste 0 951.4 -0.1 50
2019-06-06 02:00:00 12 9 Noroeste 21 Oeste 0 951.4 0.3 47
2019-06-06 01:00:00 12.8 8 Oeste 13 Oeste 0 951.4 0.7 46
2019-06-06 00:00:00 13.6 9 Oeste 20 Oeste 0 951.5 1 44
2019-06-05 23:00:00 15.2 12 Oeste 17 Oeste 0 951.1 0.8 42
2019-06-05 22:00:00 16.3 11 Noroeste 25 Oeste 0 950.7 0.4 38
2019-06-05 21:00:00 19.2 15 Oeste 29 Noroeste 0 950.5 -0.1 36
2019-06-05 20:00:00 20.4 16 Noroeste 28 Noroeste 0 950.3 -0.5 35
2019-06-05 19:00:00 20.9 16 Noroeste 30 Noroeste 0 950.3 -0.9 35
2019-06-05 18:00:00 20.8 19 Noroeste 36 Noroeste 0 950.6 -0.9 36
2019-06-05 17:00:00 20.1 22 Noroeste 38 Noroeste 0 950.8 -1 37
2019-06-05 16:00:00 20.2 19 Noroeste 35 Noroeste 0 951.2 -0.6 37
2019-06-05 15:00:00 19.6 22 Noroeste 38 Noroeste 0 951.5 -0.2 39
2019-06-05 14:00:00 18.5 22 Noroeste 41 Noroeste 0 951.8 0.3 42
2019-06-05 13:00:00 18.2 23 Noroeste 42 Oeste 0 951.8 0.5 43
2019-06-05 12:00:00 16.6 23 Noroeste 36 Noroeste 0 951.7 0.8 47
2019-06-05 11:00:00 15.4 26 Noroeste 38 Noroeste 0 951.5 1.1 51
2019-06-05 10:00:00 13.7 22 Noroeste 36 Oeste 0 951.3 1.4 62
2019-06-05 09:00:00 12.2 23 Oeste 33 Oeste 0 950.9 1.7 70
2019-06-05 08:00:00 10.7 17 Oeste 29 Noroeste 0 950.4 1.2 79
2019-06-05 07:00:00 9.6 20 Oeste 36 Oeste 0 949.9 0.6 79
2019-06-05 06:00:00 10.1 24 Oeste 32 Oeste 0 949.2 0.3 73
2019-06-05 05:00:00 10.7 20 Oeste 33 Oeste 0 949.2 0.2 67
2019-06-05 04:00:00 11.6 18 Oeste 36 Oeste 0 949.3 0.6 64
2019-06-05 03:00:00 13.4 27 Oeste 42 Oeste 0 948.9 0.4 59
2019-06-05 02:00:00 15.3 27 Noroeste 38 Oeste 0 949 0.9 61
2019-06-05 01:00:00 15.9 20 Oeste 35 Oeste 0 948.7 1.6 64
2019-06-05 00:00:00 17.3 23 Oeste 38 Oeste 0 948.5 2.1 61
2019-06-04 23:00:00 17.9 24 Oeste 40 Oeste 0 948.1 1.8 60
2019-06-04 22:00:00 19.6 28 Oeste 42 Noroeste 0 947.1 1 56
2019-06-04 21:00:00 22.3 23 Noroeste 40 Noroeste 0 946.4 0.1 46
2019-06-04 20:00:00 25 28 Noroeste 38 Noroeste 0 946.3 -0.4 42
2019-06-04 19:00:00 27.4 26 Noroeste 40 Oeste 0 946.1 -1.5 38
2019-06-04 18:00:00 27.2 14 Oeste 40 Oeste 0 946.3 -2.2 37
2019-06-04 17:00:00 29.5 18 Oeste 36 Oeste 0 946.7 -2.5 36
2019-06-04 16:00:00 28.5 22 Oeste 40 Oeste 0 947.6 -2.1 37
2019-06-04 15:00:00 27.5 21 Oeste 39 Oeste 0 948.5 -1.6 38
2019-06-04 14:00:00 27.1 17 Oeste 31 Oeste 0 949.2 -1.2 40
2019-06-04 13:00:00 25.4 14 Sudoeste 26 Oeste 0 949.7 -1 43
2019-06-04 12:00:00 23.7 13 Oeste 24 Oeste 0 950.1 -0.2 53
2019-06-04 11:00:00 21.4 9 Oeste 22 Noroeste 0 950.4 0.4 62
2019-06-04 10:00:00 19.7 13 Noroeste 22 Noroeste 0 950.7 0.8 66
2019-06-04 09:00:00 19.2 10 Noroeste 14 Oeste 0 950.3 0.7 66
2019-06-04 08:00:00 17.3 6 Oeste 9 Oeste 0 950 0.1 63
2019-06-04 07:00:00 14.5 3 Sudoeste 6 Sudoeste 0 949.9 -0.3 56
2019-06-04 06:00:00 15.9 5 Sudoeste 11 Oeste 0 949.6 -0.9 53
2019-06-04 05:00:00 17.1 9 Oeste 10 Oeste 0 949.9 -0.9 52
2019-06-04 04:00:00 18.9 9 Oeste 15 Oeste 0 950.2 -0.9 51
2019-06-04 03:00:00 19.8 10 Oeste 19 Oeste 0 950.5 -0.6 48
2019-06-04 02:00:00 21 13 Oeste 17 Oeste 0 950.8 -0.3 38
2019-06-04 01:00:00 22.7 12 Oeste 22 Oeste 0 951.1 0.9 35
2019-06-04 00:00:00 24.5 15 Oeste 23 Oeste 0 951.1 1.2 33
2019-06-03 23:00:00 23.6 7 Noroeste 12 Sudoeste 0 951.1 1.2 27
2019-06-03 22:00:00 27.3 10 Sudoeste 26 Sur 0 950.2 0.1 24
2019-06-03 21:00:00 30.2 18 Sudoeste 32 Sur 0 949.9 -0.5 23
2019-06-03 20:00:00 31.7 19 Sudoeste 34 Sudoeste 0 949.9 -0.9 23
2019-06-03 19:00:00 32.8 19 Sudoeste 37 Oeste 0 950.1 -1.3 24
2019-06-03 18:00:00 34.5 12 Sudoeste 30 Sudoeste 0 950.4 -1.8 23
2019-06-03 17:00:00 34.2 6 Oeste 36 Oeste 0 950.8 -2.3 23
2019-06-03 16:00:00 34.3 7 Oeste 28 Sudoeste 0 951.4 -2.2 24
2019-06-03 15:00:00 32.4 9 Oeste 24 Oeste 0 952.2 -1.7 26
2019-06-03 14:00:00 31.9 8 Sur 19 Sur 0 953.1 -0.8 26
2019-06-03 13:00:00 31.2 3 Norte 14 Norte 0 953.6 -0.5 26
2019-06-03 12:00:00 29.1 3 Norte 9 Noroeste 0 953.9 -0.2 29
2019-06-03 11:00:00 28.3 3 Noroeste 10 Oeste 0 953.9 0.2 31
2019-06-03 10:00:00 25.3 6 Noroeste 11 Noroeste 0 954.1 0.6 35
2019-06-03 09:00:00 23.1 5 Oeste 11 Sudoeste 0 954.1 0.7 38
2019-06-03 08:00:00 19.6 7 Sudoeste 14 Sudoeste 0 953.7 0.4 40
2019-06-03 07:00:00 18.4 5 Sudoeste 12 Sudoeste 0 953.5 0.4 39
2019-06-03 06:00:00 18.7 9 Sudoeste 12 Sudoeste 0 953.4 0.2 38
2019-06-03 05:00:00 18.2 5 Sur 12 Sudoeste 0 953.3 -0.2 38
2019-06-03 04:00:00 20.4 5 Oeste 15 Oeste 0 953.1 -0.6 35
2019-06-03 03:00:00 21.2 12 Oeste 16 Oeste 0 953.2 -0.1 34
2019-06-03 02:00:00 22.1 8 Oeste 19 Noroeste 0 953.5 0.3 32
2019-06-03 01:00:00 23.6 11 Oeste 17 Oeste 0 953.7 1.2 31
2019-06-03 00:00:00 24.1 9 Sudoeste 15 Sudoeste 0 953.3 1.7 30
2019-06-02 23:00:00 26.2 9 Sudoeste 18 Sudoeste 0 953.2 1.7 29
2019-06-02 22:00:00 28.3 9 Sudoeste 24 Sudoeste 0 952.5 1 27
2019-06-02 21:00:00 31.4 6 Sudoeste 18 Oeste 0 951.6 -0.1 24
2019-06-02 20:00:00 33.8 5 Oeste 24 Sur 0 951.5 -0.7 24
2019-06-02 19:00:00 34 0 Calma 15 Este 0 951.5 -1.3 25
2019-06-02 18:00:00 33.8 6 Sur 26 Sur 0 951.7 -1.7 25
2019-06-02 17:00:00 34.2 6 Sur 17 Noroeste 0 952.2 -2 25
2019-06-02 16:00:00 32.9 5 Este 19 Oeste 0 952.8 -2 26
2019-06-02 15:00:00 32.7 6 Norte 18 Noroeste 0 953.4 -1.6 27
2019-06-02 14:00:00 31.6 2 Sur 13 Noroeste 0 954.2 -0.8 27
2019-06-02 13:00:00 30.7 0 Calma 13 Oeste 0 954.8 -0.2 29
2019-06-02 12:00:00 29.6 5 Noroeste 13 Sudoeste 0 955 0.1 30
2019-06-02 11:00:00 27.8 6 Sudoeste 14 Sudoeste 0 955 0.5 32
2019-06-02 10:00:00 24.7 2 Noroeste 8 Noroeste 0 955 0.7 35
2019-06-02 09:00:00 21.3 2 Norte 9 Este 0 954.9 0.5 39
2019-06-02 08:00:00 16.5 8 Este 10 Este 0 954.5 0.1 44
2019-06-02 07:00:00 13.7 8 Sudeste 13 Sur 0 954.3 0.1 46
2019-06-02 06:00:00 15.4 0 Calma 7 Noroeste 0 954.4 0.2 41
2019-06-02 05:00:00 16.8 0 Calma 8 Sur 0 954.4 -0.1 39
2019-06-02 04:00:00 17.7 4 Sudeste 11 Sur 0 954.2 0.1 38
2019-06-02 03:00:00 18.3 8 Sudeste 17 Sudeste 0 954.2 0.4 37
2019-06-02 02:00:00 20.3 11 Sur 18 Sur 0 954.5 0.9 34
2019-06-02 01:00:00 22 9 Sur 18 Sur 0 954.1 1.2 34
2019-06-02 00:00:00 23.8 10 Sudoeste 19 Sudoeste 0 953.8 1.2 33
2019-06-01 23:00:00 25.7 12 Sudoeste 19 Sudoeste 0 953.6 1.2 29
2019-06-01 22:00:00 27.9 6 Nordeste 14 Nordeste 0 952.9 0.3 25
2019-06-01 21:00:00 30.9 6 Nordeste 20 Este 0 952.6 -0.3 24
2019-06-01 20:00:00 32.6 5 Este 19 Este 0 952.4 -1.1 24
2019-06-01 19:00:00 33.2 7 Norte 23 Sudeste 0 952.6 -1.5 24
2019-06-01 18:00:00 33 7 Este 27 Este 0 952.9 -2 24
2019-06-01 17:00:00 32.5 11 Este 25 Este 0 953.5 -2 25
2019-06-01 16:00:00 33.3 6 Sudeste 28 Este 0 954.1 -1.9 26
2019-06-01 15:00:00 31.5 7 Nordeste 26 Este 0 954.9 -1.5 27
2019-06-01 14:00:00 30.2 9 Este 25 Este 0 955.5 -1 29
2019-06-01 13:00:00 28.9 10 Sudeste 20 Nordeste 0 956 -0.7 30
2019-06-01 12:00:00 27.9 7 Norte 17 Nordeste 0 956.4 -0.1 33
2019-06-01 11:00:00 25.4 9 Este 18 Este 0 956.5 0.2 37
2019-06-01 10:00:00 23.1 6 Este 11 Este 0 956.7 0.9 41
2019-06-01 09:00:00 19.8 7 Este 9 Este 0 956.5 1.1 45
2019-06-01 08:00:00 16.5 3 Este 5 Este 0 956.3 0.9 52
2019-06-01 07:00:00 12.2 5 Este 10 Este 0 955.8 0.3 54
2019-06-01 06:00:00 14.8 0 Calma 9 Sur 0 955.4 -0.4 50
2019-06-01 05:00:00 14.9 7 Sudeste 9 Sudeste 0 955.4 -0.2 49
2019-06-01 04:00:00 15.9 5 Sur 11 Sudeste 0 955.5 -0.2 46
2019-06-01 03:00:00 17 7 Sudeste 14 Sudoeste 0 955.8 0.1 42
2019-06-01 02:00:00 20.1 13 Sudoeste 19 Sudoeste 0 955.6 0.6 39
2019-06-01 01:00:00 20.1 9 Sudoeste 12 Sudoeste 0 955.7 1.1 38
2019-06-01 00:00:00 22.1 9 Sudoeste 14 Sudoeste 0 955.7 1.5 34
2019-05-31 23:00:00 22.8 5 Este 14 Este 0 955 0.9 26
2019-05-31 22:00:00 26.6 9 Nordeste 17 Nordeste 0 954.6 0.3 24
2019-05-31 21:00:00 29.6 12 Nordeste 23 Este 0 954.2 -0.3 23
2019-05-31 20:00:00 31.2 9 Nordeste 26 Este 0 954.1 -0.8 23
2019-05-31 19:00:00 31.6 11 Este 26 Este 0 954.3 -1.2 23
2019-05-31 18:00:00 31.9 8 Nordeste 29 Sudeste 0 954.5 -1.3 24
2019-05-31 17:00:00 32 10 Este 31 Este 0 954.9 -1.7 24
2019-05-31 16:00:00 31.7 13 Norte 32 Este 0 955.5 -1.7 26
2019-05-31 15:00:00 30.2 11 Nordeste 29 Este 0 955.8 -1.6 27
2019-05-31 14:00:00 30.4 8 Este 28 Este 0 956.6 -1 29
2019-05-31 13:00:00 28 12 Este 30 Nordeste 0 957.2 -0.6 30
2019-05-31 12:00:00 26.8 12 Este 20 Este 0 957.4 -0.4 32
2019-05-31 11:00:00 25.3 8 Este 17 Este 0 957.6 -0.2 36
2019-05-31 10:00:00 21.9 9 Este 17 Este 0 957.8 0.5 42
2019-05-31 09:00:00 20 2 Este 5 Este 0 957.8 1 50
2019-05-31 08:00:00 15.3 0 Calma 8 Sudeste 0 957.8 0.9 61
2019-05-31 07:00:00 12.2 7 Sudeste 13 Sudeste 0 957.3 0.3 65
2019-05-31 06:00:00 13.4 5 Sur 10 Sudeste 0 956.8 -0.5 62
2019-05-31 05:00:00 13.3 8 Sudeste 10 Sudeste 0 956.9 -0.5 60
2019-05-31 04:00:00 15.3 6 Sudeste 13 Sur 0 957 -0.3 55
2019-05-31 03:00:00 15.6 7 Sur 12 Sur 0 957.3 -0.2 52
2019-05-31 02:00:00 18 5 Sur 10 Sur 0 957.4 0.5 38
2019-05-31 01:00:00 19.7 4 Sudeste 10 Sudeste 0 957.3 1.4 34
2019-05-31 00:00:00 20.8 8 Sudeste 13 Sudeste 0 957.5 1.8 32
2019-05-30 23:00:00 23.5 11 Este 16 Este 0 956.9 1.3 28
2019-05-30 22:00:00 25.3 8 Nordeste 19 Nordeste 0 955.9 0.1 27
2019-05-30 21:00:00 28.3 12 Nordeste 23 Nordeste 0 955.7 -0.3 25
2019-05-30 20:00:00 29.3 13 Este 24 Norte 0 955.6 -0.8 25
2019-05-30 19:00:00 29.9 15 Este 29 Este 0 955.8 -0.9 25
2019-05-30 18:00:00 30.2 15 Este 30 Este 0 956 -1.2 25
2019-05-30 17:00:00 30 15 Nordeste 31 Este 0 956.4 -1.3 25
2019-05-30 16:00:00 29.6 15 Este 29 Nordeste 0 956.7 -1.4 26
2019-05-30 15:00:00 28.7 13 Este 29 Este 0 957.2 -1.1 27
2019-05-30 14:00:00 27.6 15 Este 24 Este 0 957.7 -0.6 29
2019-05-30 13:00:00 27.4 6 Este 24 Este 0 958.1 -0.2 31
2019-05-30 12:00:00 25.3 12 Este 26 Sudeste 0 958.3 0 33
2019-05-30 11:00:00 24 9 Este 20 Este 0 958.3 0.5 36
2019-05-30 10:00:00 21.6 12 Este 21 Este 0 958.3 0.9 39
2019-05-30 09:00:00 19.7 9 Nordeste 15 Este 0 958.3 1.4 41
2019-05-30 08:00:00 17.1 5 Este 13 Nordeste 0 957.8 0.9 44
2019-05-30 07:00:00 15.3 5 Este 17 Sudeste 0 957.4 0.4 44
2019-05-30 06:00:00 16.5 12 Este 23 Este 0 956.9 -0.3 40
2019-05-30 05:00:00 17.7 13 Este 22 Nordeste 0 956.9 -0.2 39
2019-05-30 04:00:00 17.3 6 Este 19 Este 0 957 -0.2 40
2019-05-30 03:00:00 17.6 8 Este 12 Este 0 957.2 0 39
2019-05-30 02:00:00 17.5 7 Este 10 Este 0 957.1 0.6 37
2019-05-30 01:00:00 18.1 8 Este 12 Este 0 957.2 1.6 36
2019-05-30 00:00:00 19.3 4 Este 14 Nordeste 0 957.2 2.1 32
2019-05-29 23:00:00 22.2 10 Nordeste 16 Nordeste 0 956.5 1.9 29
2019-05-29 22:00:00 23.5 7 Nordeste 21 Nordeste 0 955.6 1 28
2019-05-29 21:00:00 26.7 9 Nordeste 26 Nordeste 0 955.1 0.2 26
2019-05-29 20:00:00 27.7 12 Nordeste 27 Nordeste 0 954.6 -0.7 26
2019-05-29 19:00:00 28.1 16 Este 30 Este 0 954.6 -0.9 26
2019-05-29 18:00:00 28.1 15 Este 28 Este 0 954.9 -0.9 27
2019-05-29 17:00:00 27.6 15 Este 31 Este 0 955.3 -0.9 28
2019-05-29 16:00:00 26.3 13 Nordeste 29 Este 0 955.5 -1 29
2019-05-29 15:00:00 25.1 17 Nordeste 33 Nordeste 0 955.8 -0.5 29
2019-05-29 14:00:00 24.5 20 Este 33 Este 0 956.2 -0.1 30
2019-05-29 13:00:00 23.6 22 Este 38 Este 0 956.5 0.3 30
2019-05-29 12:00:00 22 22 Este 38 Este 0 956.3 0.8 33
2019-05-29 11:00:00 20 23 Este 38 Este 0 956.3 1 35
2019-05-29 10:00:00 19.3 24 Este 35 Este 0 956.2 1.6 36
2019-05-29 09:00:00 18.3 21 Este 33 Este 0 955.5 1.4 37
2019-05-29 08:00:00 16.8 14 Este 25 Este 0 955.3 1.5 40
2019-05-29 07:00:00 15.8 13 Nordeste 21 Este 0 954.6 1 40
2019-05-29 06:00:00 16.5 14 Este 23 Este 0 954.1 0.5 39
2019-05-29 05:00:00 15.5 8 Este 16 Este 0 953.8 0.5 39
2019-05-29 04:00:00 16.5 10 Este 21 Este 0 953.6 1.1 36
2019-05-29 03:00:00 18.8 14 Este 26 Este 0 953.6 1.8 32
2019-05-29 02:00:00 20.5 15 Nordeste 32 Este 0 953.3 1.9 31
2019-05-29 01:00:00 21.1 9 Nordeste 17 Nordeste 0 952.5 2.1 29
2019-05-29 00:00:00 22 7 Nordeste 18 Nordeste 0 951.8 2 28
2019-05-28 23:00:00 24.1 12 Norte 19 Noroeste 0 951.4 1.9 30
2019-05-28 22:00:00 24.6 12 Noroeste 22 Norte 0 950.4 0.9 31
2019-05-28 21:00:00 28.3 15 Noroeste 23 Noroeste 0 949.8 0.5 29
2019-05-28 20:00:00 30.1 14 Norte 27 Norte 0 949.5 0 27
2019-05-28 19:00:00 30.8 11 Noroeste 25 Noroeste 0 949.5 -0.1 27
2019-05-28 18:00:00 31.5 8 Noroeste 30 Noroeste 0 949.3 -0.4 27
2019-05-28 17:00:00 30.8 8 Norte 23 Nordeste 0 949.5 -0.5 27
2019-05-28 16:00:00 30.4 8 Noroeste 24 Norte 0 949.6 -0.4 29
2019-05-28 15:00:00 29.7 8 Norte 24 Norte 0 949.7 -0.1 29
2019-05-28 14:00:00 28.9 10 Nordeste 22 Nordeste 0 950 0.2 30
2019-05-28 13:00:00 28.3 5 Nordeste 22 Este 0 950 0.2 32
2019-05-28 12:00:00 26.4 13 Nordeste 20 Este 0 949.8 0.4 35
2019-05-28 11:00:00 25.1 6 Nordeste 17 Norte 0 949.8 0.8 40
2019-05-28 10:00:00 22.5 12 Norte 21 Norte 0 949.8 1.3 45
2019-05-28 09:00:00 20.3 11 Norte 15 Norte 0 949.4 1.2 52
2019-05-28 08:00:00 16.7 6 Noroeste 10 Noroeste 0 949 0.6 61
2019-05-28 07:00:00 14.4 6 Noroeste 10 Noroeste 0 948.5 0.2 69
2019-05-28 06:00:00 14.7 5 Noroeste 10 Noroeste 0 948.2 -0.3 69
2019-05-28 05:00:00 15.2 8 Noroeste 14 Noroeste 0 948.4 -0.2 67
2019-05-28 04:00:00 17.3 11 Noroeste 14 Oeste 0 948.3 -0.3 59
2019-05-28 03:00:00 18.7 11 Noroeste 15 Oeste 0 948.5 0 54
2019-05-28 02:00:00 20.1 10 Oeste 21 Oeste 0 948.6 0.4 48
2019-05-28 01:00:00 21.4 13 Oeste 22 Oeste 0 948.6 1.1 45
2019-05-28 00:00:00 22.6 15 Oeste 21 Oeste 0 948.5 1.2 42
2019-05-27 23:00:00 24.1 17 Noroeste 26 Noroeste 0 948.2 1.1 37
2019-05-27 22:00:00 25.9 14 Noroeste 17 Noroeste 0 947.5 0.3 32
2019-05-27 21:00:00 27.2 13 Noroeste 26 Noroeste 0 947.3 -0.2 30
2019-05-27 20:00:00 29.6 21 Noroeste 37 Noroeste 0 947.1 -0.7 27
2019-05-27 19:00:00 30.2 25 Noroeste 41 Norte 0 947.2 -1.2 27
2019-05-27 18:00:00 29.8 22 Noroeste 35 Norte 0 947.5 -1.4 27
2019-05-27 17:00:00 31.1 13 Noroeste 36 Noroeste 0 947.8 -1.9 26
2019-05-27 16:00:00 31.4 20 Oeste 41 Oeste 0 948.4 -1.9 26
2019-05-27 15:00:00 30.7 16 Noroeste 34 Noroeste 0 948.9 -1.8 27
2019-05-27 14:00:00 29.5 18 Noroeste 36 Noroeste 0 949.7 -1.2 28
2019-05-27 13:00:00 28.5 10 Noroeste 21 Oeste 0 950.3 -0.7 30
2019-05-27 12:00:00 27.4 7 Norte 14 Noroeste 0 950.7 -0.3 32
2019-05-27 11:00:00 25.4 4 Noroeste 8 Noroeste 0 950.9 0.4 34
2019-05-27 10:00:00 22.9 3 Noroeste 10 Noroeste 0 951 0.5 39
2019-05-27 09:00:00 19.1 4 Noroeste 7 Noroeste 0 951 0.9 46
2019-05-27 08:00:00 14.7 3 Sur 5 Sur 0 950.5 0 52
2019-05-27 07:00:00 13.5 3 Oeste 6 Oeste 0 950.5 -0.3 52
2019-05-27 06:00:00 17.2 4 Este 6 Nordeste 0 950.1 -1.2 47
2019-05-27 05:00:00 15 0 Calma 4 Sur 0 950.5 -1 49
2019-05-27 04:00:00 15.2 3 Sudeste 3 Sudeste 0 950.8 -0.9 48
2019-05-27 03:00:00 16.9 0 Calma 13 Nordeste 0 951.3 -0.6 42
2019-05-27 02:00:00 20.6 8 Nordeste 11 Nordeste 0 951.5 -0.1 39
2019-05-27 01:00:00 19.1 4 Noroeste 9 Norte 0 951.7 0.6 38
2019-05-27 00:00:00 21.6 8 Norte 10 Norte 0 951.9 1 34
2019-05-26 23:00:00 22.3 7 Norte 9 Norte 0 951.6 0.7 34
2019-05-26 22:00:00 23 7 Norte 18 Norte 0 951.1 0.1 32
2019-05-26 21:00:00 26.4 11 Norte 25 Norte 0 950.9 -0.3 29
2019-05-26 20:00:00 27.5 14 Norte 30 Norte 0 950.9 -0.9 28
2019-05-26 19:00:00 27.8 17 Norte 30 Norte 0 951 -1.2 27
2019-05-26 18:00:00 27.8 10 Nordeste 30 Noroeste 0 951.2 -1.6 27
2019-05-26 17:00:00 28.1 19 Norte 36 Norte 0 951.8 -1.6 28
2019-05-26 16:00:00 26.8 9 Norte 24 Norte 0 952.2 -1.7 29
2019-05-26 15:00:00 25.3 10 Nordeste 23 Norte 0 952.8 -1.3 30
2019-05-26 14:00:00 24.7 8 Norte 27 Norte 0 953.4 -0.8 33
2019-05-26 13:00:00 23.5 12 Norte 24 Noroeste 0 953.9 -0.6 36
2019-05-26 12:00:00 22.3 10 Norte 21 Norte 0 954.1 -0.4 37
2019-05-26 11:00:00 20.9 11 Nordeste 23 Este 0 954.2 0.1 39
2019-05-26 10:00:00 20 9 Nordeste 17 Nordeste 0 954.5 0.7 41
2019-05-26 09:00:00 19.5 3 Nordeste 6 Nordeste 0 954.5 1.1 42
2019-05-26 08:00:00 15.7 0 Calma 5 Sudoeste 0 954.1 0.7 49
2019-05-26 07:00:00 11.3 4 Noroeste 11 Norte 0 953.8 0.2 52
2019-05-26 06:00:00 12.2 9 Norte 11 Norte 0 953.4 -0.2 49
2019-05-26 05:00:00 15 3 Nordeste 7 Este 0 953.4 -0.4 46
2019-05-26 04:00:00 13.4 2 Nordeste 10 Nordeste 0 953.6 -0.3 46
2019-05-26 03:00:00 15.1 5 Nordeste 13 Nordeste 0 953.6 -0.4 42
2019-05-26 02:00:00 16.5 6 Norte 10 Nordeste 0 953.8 0 40
2019-05-26 01:00:00 16.7 0 Calma 4 Oeste 0 953.9 0.8 39
2019-05-26 00:00:00 17.2 2 Sudeste 5 Nordeste 0 954 1.4 37
2019-05-25 23:00:00 20.5 4 Nordeste 12 Norte 0 953.8 1.6 32
2019-05-25 22:00:00 20.2 6 Norte 15 Nordeste 0 953.1 0.9 31
2019-05-25 21:00:00 23.9 10 Nordeste 22 Nordeste 0 952.6 0.4 29
2019-05-25 20:00:00 24.9 12 Nordeste 28 Nordeste 0 952.2 0 28
2019-05-25 19:00:00 24.7 10 Nordeste 28 Nordeste 0 952.2 -0.3 27
2019-05-25 18:00:00 25.4 11 Norte 30 Este 0 952.2 -0.8 27
2019-05-25 17:00:00 25.3 9 Nordeste 35 Nordeste 0 952.2 -1.4 29
2019-05-25 16:00:00 24.8 11 Nordeste 27 Nordeste 0 952.5 -1.2 30
2019-05-25 15:00:00 23.5 15 Nordeste 30 Este 0 953 -0.9 33
2019-05-25 14:00:00 22.3 14 Nordeste 34 Nordeste 0 953.6 -0.4 36
2019-05-25 13:00:00 21.1 13 Nordeste 37 Nordeste 0 953.7 -0.3 39
2019-05-25 12:00:00 19.5 13 Nordeste 27 Nordeste 0 953.9 0.4 42
2019-05-25 11:00:00 17.8 14 Este 27 Este 0 954 0.7 48
2019-05-25 10:00:00 16 18 Nordeste 29 Este 0 954 1.4 52
2019-05-25 09:00:00 15.3 19 Nordeste 26 Nordeste 0 953.5 1.6 54
2019-05-25 08:00:00 14.5 8 Este 16 Este 0 953.3 1.8 61
2019-05-25 07:00:00 13.3 6 Nordeste 17 Nordeste 0 952.6 1.4 71
2019-05-25 06:00:00 13.8 9 Nordeste 17 Nordeste 0 951.9 0.7 71
2019-05-25 05:00:00 13.6 6 Este 16 Nordeste 0 951.5 0.5 71
2019-05-25 04:00:00 15.7 11 Nordeste 17 Nordeste 0 951.2 0.3 61
2019-05-25 03:00:00 16.9 12 Nordeste 19 Nordeste 0 951.2 0.8 44
2019-05-25 02:00:00 17.5 9 Nordeste 20 Este 0 951 1.3 37
2019-05-25 01:00:00 18.8 11 Nordeste 29 Nordeste 0 950.9 2.1 34
2019-05-25 00:00:00 20.1 13 Este 19 Este 0 950.4 2 37
2019-05-24 23:00:00 19.3 10 Norte 13 Norte 0 949.7 1.9 36
2019-05-24 22:00:00 22.4 9 Nordeste 21 Norte 0 948.8 1.1 30
2019-05-24 21:00:00 25 15 Norte 47 Norte 0 948.4 0.6 29
2019-05-24 20:00:00 26.5 13 Nordeste 31 Nordeste 0 947.8 -0.3 29
2019-05-24 19:00:00 26.9 13 Nordeste 29 Norte 0 947.7 -0.9 31
2019-05-24 18:00:00 25.3 11 Nordeste 24 Este 0 947.8 -1.3 32
2019-05-24 17:00:00 27.4 16 Norte 28 Norte 0 948.1 -1.2 30
2019-05-24 16:00:00 26.1 8 Norte 24 Norte 0 948.6 -1.3 31
2019-05-24 15:00:00 24.7 8 Norte 28 Norte 0 949.1 -1 33
2019-05-24 14:00:00 23.8 13 Norte 25 Norte 0 949.3 -1.1 35
2019-05-24 13:00:00 22.8 13 Norte 24 Norte 0 949.9 -0.4 37
2019-05-24 12:00:00 21 12 Noroeste 20 Norte 0 950.1 0 43
2019-05-24 11:00:00 19 9 Noroeste 24 Noroeste 0 950.4 0.4 49
2019-05-24 10:00:00 16.8 17 Noroeste 24 Noroeste 0 950.3 0.1 57
2019-05-24 09:00:00 14 10 Oeste 16 Oeste 0 950.1 -0.4 74
2019-05-24 08:00:00 12.3 8 Sudoeste 12 Oeste 0 950 -0.5 82
2019-05-24 07:00:00 12.4 4 Sudoeste 13 Oeste 0 950.2 -0.6 82
2019-05-24 06:00:00 13.1 7 Oeste 17 Oeste 0 950.5 -0.7 80
2019-05-24 05:00:00 14.1 10 Oeste 18 Oeste 0 950.5 -1.3 74
2019-05-24 04:00:00 15.3 10 Oeste 17 Oeste 0 950.8 -1.5 69
2019-05-24 03:00:00 15.6 6 Sudoeste 17 Oeste 0 951.2 -1.2 64
2019-05-24 02:00:00 17 14 Oeste 25 Noroeste 0 951.8 -0.2 58
2019-05-24 01:00:00 18.3 16 Noroeste 24 Oeste 0 952.3 0.8 46
2019-05-24 00:00:00 19.6 16 Noroeste 23 Oeste 0 952.4 1.3 37
2019-05-23 23:00:00 20.9 12 Noroeste 23 Noroeste 0 952 1.3 35
2019-05-23 22:00:00 22 12 Oeste 29 Noroeste 0 951.5 0.8 32
2019-05-23 21:00:00 23.7 23 Noroeste 34 Noroeste 0 951.1 -0.1 32
2019-05-23 20:00:00 26.4 22 Noroeste 31 Noroeste 0 950.7 -0.7 31
2019-05-23 19:00:00 27.8 22 Oeste 31 Oeste 0 950.7 -1.5 29
2019-05-23 18:00:00 30 13 Oeste 28 Oeste 0 951.2 -1.6 29
2019-05-23 17:00:00 30 10 Oeste 28 Oeste 0 951.4 -2.1 30
2019-05-23 16:00:00 27.8 7 Oeste 29 Sudoeste 0 952.2 -1.8 30
2019-05-23 15:00:00 29 9 Oeste 29 Oeste 0 952.8 -1.4 32
2019-05-23 14:00:00 28.5 5 Oeste 35 Sudoeste 0 953.5 -0.7 34
2019-05-23 13:00:00 26.9 4 Noroeste 18 Oeste 0 954 -0.3 37
2019-05-23 12:00:00 25.5 5 Noroeste 14 Norte 0 954.2 0.1 41
2019-05-23 11:00:00 24 5 Noroeste 12 Noroeste 0 954.2 0.3 45
2019-05-23 10:00:00 22.5 0 Calma 6 Noroeste 0 954.3 0.8 51
2019-05-23 09:00:00 19.7 6 Oeste 8 Oeste 0 954.1 0.8 59
2019-05-23 08:00:00 16 4 Oeste 9 Sudoeste 0 953.9 0.8 67
2019-05-23 07:00:00 13.6 5 Sudoeste 10 Oeste 0 953.5 0.5 67
2019-05-23 06:00:00 14.8 4 Sudoeste 14 Oeste 0 953.3 0.2 64
2019-05-23 05:00:00 15 9 Oeste 16 Oeste 0 953.1 0 58
2019-05-23 04:00:00 16.6 12 Oeste 16 Oeste 0 953 -0.3 52
2019-05-23 03:00:00 17.6 10 Sudoeste 20 Sudoeste 0 953.1 -0.2 46
2019-05-23 02:00:00 18.4 11 Sudoeste 18 Oeste 0 953.1 0.3 42
2019-05-23 01:00:00 19.8 12 Oeste 16 Oeste 0 953.3 1.1 40
2019-05-23 00:00:00 20.6 8 Sudoeste 18 Sudoeste 0 953.3 1.4 38
2019-05-22 23:00:00 22.1 12 Sudoeste 19 Sudoeste 0 952.8 1.1 36
2019-05-22 22:00:00 22.4 8 Sudoeste 12 Sudoeste 0 952.2 0.5 34
2019-05-22 21:00:00 25.6 8 Sudoeste 15 Sudoeste 0 951.9 0 30
2019-05-22 20:00:00 27.5 7 Sudoeste 21 Noroeste 0 951.7 -0.5 30
2019-05-22 19:00:00 28.3 10 Sudoeste 19 Sudoeste 0 951.7 -0.7 29
2019-05-22 18:00:00 26.4 8 Norte 16 Sudeste 0 951.9 -1 30
2019-05-22 17:00:00 26.9 9 Sudeste 22 Sudeste 0 952.2 -0.9 30
2019-05-22 16:00:00 28.7 3 Este 18 Sudoeste 0 952.4 -1.1 30
2019-05-22 15:00:00 26.5 8 Sudoeste 17 Sudeste 0 952.9 -0.7 32
2019-05-22 14:00:00 25.7 10 Este 25 Sudeste 0 953.1 -0.3 33
2019-05-22 13:00:00 23.7 7 Sudeste 27 Este 0 953.5 0.1 35
2019-05-22 12:00:00 24.8 5 Sudeste 15 Sudoeste 0 953.6 0.7 37
2019-05-22 11:00:00 23.1 4 Este 15 Este 0 953.4 0.9 44
2019-05-22 10:00:00 20.6 6 Sudeste 12 Sudeste 0 953.4 1.3 50
2019-05-22 09:00:00 19.1 0 Calma 5 Sur 0 952.9 0.8 55
2019-05-22 08:00:00 14.5 4 Sudoeste 7 Sudoeste 0 952.5 0.5 64
2019-05-22 07:00:00 11.7 4 Sudoeste 6 Oeste 0 952.1 0.1 67
2019-05-22 06:00:00 11.7 4 Sudoeste 8 Oeste 0 952.1 0.1 64
2019-05-22 05:00:00 13.1 6 Oeste 12 Oeste 0 952 0 58
2019-05-22 04:00:00 14.2 5 Oeste 9 Oeste 0 952 0.2 52
2019-05-22 03:00:00 13.8 5 Oeste 8 Sudoeste 0 952 0.2 49
2019-05-22 02:00:00 13.4 4 Sur 8 Oeste 0 952 0.4 47
2019-05-22 01:00:00 14.8 7 Sudoeste 11 Sudoeste 0 951.8 1.1 44
2019-05-22 00:00:00 15.7 0 Calma 4 Noroeste 0 951.8 1.5 43
2019-05-21 23:00:00 17.9 3 Noroeste 9 Noroeste 0 951.6 1.9 38
2019-05-21 22:00:00 18.6 8 Noroeste 15 Noroeste 0 950.7 1 37
2019-05-21 21:00:00 23 11 Noroeste 22 Noroeste 0 950.3 0.5 33
2019-05-21 20:00:00 23.9 12 Noroeste 21 Oeste 0 949.7 -0.3 32
2019-05-21 19:00:00 25.5 10 Noroeste 24 Noroeste 0 949.7 -0.7 32
2019-05-21 18:00:00 25.3 9 Norte 26 Noroeste 0 949.8 -0.6 32
2019-05-21 17:00:00 25.2 10 Noroeste 27 Noroeste 0 950 -0.8 33
2019-05-21 16:00:00 24.8 10 Noroeste 24 Noroeste 0 950.4 -0.6 34
2019-05-21 15:00:00 24 14 Noroeste 23 Oeste 0 950.4 -0.8 35
2019-05-21 14:00:00 23.3 13 Noroeste 20 Noroeste 0 950.8 -0.5 37
2019-05-21 13:00:00 22 5 Noroeste 26 Oeste 0 951 -0.3 40
2019-05-21 12:00:00 20.7 5 Norte 17 Noroeste 0 951.2 0.4 44
2019-05-21 11:00:00 19.2 9 Noroeste 17 Noroeste 0 951.3 0.7 48
2019-05-21 10:00:00 17.1 4 Noroeste 13 Noroeste 0 951.3 1.2 53
2019-05-21 09:00:00 14.7 11 Oeste 17 Noroeste 0 950.8 0.9 60
2019-05-21 08:00:00 12.9 0 Calma 10 Oeste 0 950.6 0.9 65
2019-05-21 07:00:00 10.6 6 Oeste 13 Oeste 0 950.1 0.4 67
2019-05-21 06:00:00 11.9 11 Oeste 17 Oeste 0 949.9 0.3 63
2019-05-21 05:00:00 13 8 Oeste 19 Oeste 0 949.7 -0.3 58
2019-05-21 04:00:00 12.6 12 Oeste 18 Noroeste 0 949.7 -0.2 55
2019-05-21 03:00:00 14.8 14 Oeste 21 Oeste 0 949.6 0 50
2019-05-21 02:00:00 15.9 15 Oeste 27 Noroeste 0 950 0.7 46
2019-05-21 01:00:00 17.8 18 Noroeste 28 Noroeste 0 949.9 1.3 41
2019-05-21 00:00:00 18 14 Noroeste 20 Oeste 0 949.6 1.6 37